sensor_id;sensor_type;location;lat;lon;timestamp;P1;durP1;ratioP1;P2;durP2;ratioP2
2480;SDS011;57396;48.742;9.128;2023-05-23T00:01:33;28.60;;;19.00;;
2480;SDS011;57396;48.742;9.128;2023-05-23T00:04:05;28.20;;;20.20;;
2480;SDS011;57396;48.742;9.128;2023-05-23T00:06:31;31.57;;;21.27;;
2480;SDS011;57396;48.742;9.128;2023-05-23T00:08:56;30.77;;;22.27;;
2480;SDS011;57396;48.742;9.128;2023-05-23T00:11:22;34.43;;;22.07;;
2480;SDS011;57396;48.742;9.128;2023-05-23T00:13:54;36.00;;;22.50;;
2480;SDS011;57396;48.742;9.128;2023-05-23T00:16:21;33.80;;;24.40;;
2480;SDS011;57396;48.742;9.128;2023-05-23T00:18:47;35.50;;;24.30;;
2480;SDS011;57396;48.742;9.128;2023-05-23T00:21:14;37.37;;;25.03;;
2480;SDS011;57396;48.742;9.128;2023-05-23T00:23:39;43.20;;;25.87;;
2480;SDS011;57396;48.742;9.128;2023-05-23T00:26:06;45.23;;;27.70;;
2480;SDS011;57396;48.742;9.128;2023-05-23T00:28:32;43.87;;;30.20;;
2480;SDS011;57396;48.742;9.128;2023-05-23T00:30:58;47.23;;;29.83;;
2480;SDS011;57396;48.742;9.128;2023-05-23T00:33:23;57.53;;;33.10;;
2480;SDS011;57396;48.742;9.128;2023-05-23T00:35:48;49.60;;;31.23;;
2480;SDS011;57396;48.742;9.128;2023-05-23T00:38:14;54.50;;;34.20;;
2480;SDS011;57396;48.742;9.128;2023-05-23T00:40:40;49.40;;;32.43;;
2480;SDS011;57396;48.742;9.128;2023-05-23T00:43:05;55.03;;;33.33;;
2480;SDS011;57396;48.742;9.128;2023-05-23T00:45:34;53.47;;;32.17;;
2480;SDS011;57396;48.742;9.128;2023-05-23T00:47:59;52.27;;;33.93;;
2480;SDS011;57396;48.742;9.128;2023-05-23T00:50:25;53.37;;;33.90;;
2480;SDS011;57396;48.742;9.128;2023-05-23T00:52:54;57.30;;;34.60;;
2480;SDS011;57396;48.742;9.128;2023-05-23T00:55:22;56.40;;;34.47;;
2480;SDS011;57396;48.742;9.128;2023-05-23T00:57:48;58.23;;;36.33;;
2480;SDS011;57396;48.742;9.128;2023-05-23T01:00:14;59.13;;;34.13;;
2480;SDS011;57396;48.742;9.128;2023-05-23T01:02:44;57.00;;;35.90;;
2480;SDS011;57396;48.742;9.128;2023-05-23T01:05:10;56.97;;;35.20;;
2480;SDS011;57396;48.742;9.128;2023-05-23T01:07:38;63.23;;;36.73;;
2480;SDS011;57396;48.742;9.128;2023-05-23T01:10:04;54.40;;;34.27;;
2480;SDS011;57396;48.742;9.128;2023-05-23T01:12:34;55.27;;;32.40;;
2480;SDS011;57396;48.742;9.128;2023-05-23T01:15:07;53.07;;;31.67;;
2480;SDS011;57396;48.742;9.128;2023-05-23T01:20:06;51.30;;;33.97;;
2480;SDS011;57396;48.742;9.128;2023-05-23T01:22:37;52.70;;;34.93;;
2480;SDS011;57396;48.742;9.128;2023-05-23T01:25:22;54.73;;;32.90;;
2480;SDS011;57396;48.742;9.128;2023-05-23T01:27:52;57.37;;;33.70;;
2480;SDS011;57396;48.742;9.128;2023-05-23T01:30:20;60.60;;;36.93;;
2480;SDS011;57396;48.742;9.128;2023-05-23T01:32:47;56.27;;;34.40;;
2480;SDS011;57396;48.742;9.128;2023-05-23T01:35:17;58.00;;;36.33;;
2480;SDS011;57396;48.742;9.128;2023-05-23T01:37:44;62.47;;;36.87;;
2480;SDS011;57396;48.742;9.128;2023-05-23T01:40:10;59.93;;;36.43;;
2480;SDS011;57396;48.742;9.128;2023-05-23T01:42:36;59.87;;;36.80;;
2480;SDS011;57396;48.742;9.128;2023-05-23T01:45:01;65.10;;;37.07;;
2480;SDS011;57396;48.742;9.128;2023-05-23T01:47:27;62.00;;;37.70;;
2480;SDS011;57396;48.742;9.128;2023-05-23T01:49:53;66.07;;;38.60;;
2480;SDS011;57396;48.742;9.128;2023-05-23T01:52:20;58.37;;;37.50;;
2480;SDS011;57396;48.742;9.128;2023-05-23T01:54:46;64.97;;;38.87;;
2480;SDS011;57396;48.742;9.128;2023-05-23T01:57:13;64.53;;;39.00;;
2480;SDS011;57396;48.742;9.128;2023-05-23T01:59:39;74.57;;;39.80;;
2480;SDS011;57396;48.742;9.128;2023-05-23T02:02:04;65.43;;;39.00;;
2480;SDS011;57396;48.742;9.128;2023-05-23T02:04:30;63.87;;;39.13;;
2480;SDS011;57396;48.742;9.128;2023-05-23T02:06:55;68.97;;;41.10;;
2480;SDS011;57396;48.742;9.128;2023-05-23T02:09:21;68.00;;;40.47;;
2480;SDS011;57396;48.742;9.128;2023-05-23T02:11:46;73.40;;;43.83;;
2480;SDS011;57396;48.742;9.128;2023-05-23T02:14:12;66.87;;;40.70;;
2480;SDS011;57396;48.742;9.128;2023-05-23T02:16:37;63.37;;;41.30;;
2480;SDS011;57396;48.742;9.128;2023-05-23T02:19:03;76.83;;;43.80;;
2480;SDS011;57396;48.742;9.128;2023-05-23T02:21:28;77.33;;;43.17;;
2480;SDS011;57396;48.742;9.128;2023-05-23T02:23:54;77.37;;;44.07;;
2480;SDS011;57396;48.742;9.128;2023-05-23T02:26:19;68.30;;;42.93;;
2480;SDS011;57396;48.742;9.128;2023-05-23T02:28:45;77.87;;;45.80;;
2480;SDS011;57396;48.742;9.128;2023-05-23T02:31:11;63.40;;;42.80;;
2480;SDS011;57396;48.742;9.128;2023-05-23T02:33:36;72.60;;;43.67;;
2480;SDS011;57396;48.742;9.128;2023-05-23T02:36:01;67.30;;;43.67;;
2480;SDS011;57396;48.742;9.128;2023-05-23T02:38:27;76.77;;;45.37;;
2480;SDS011;57396;48.742;9.128;2023-05-23T02:40:54;65.37;;;41.67;;
2480;SDS011;57396;48.742;9.128;2023-05-23T02:43:21;70.10;;;43.40;;
2480;SDS011;57396;48.742;9.128;2023-05-23T02:45:47;73.93;;;43.40;;
2480;SDS011;57396;48.742;9.128;2023-05-23T02:48:13;69.00;;;43.10;;
2480;SDS011;57396;48.742;9.128;2023-05-23T02:50:38;69.50;;;41.47;;
2480;SDS011;57396;48.742;9.128;2023-05-23T02:53:03;70.23;;;42.40;;
2480;SDS011;57396;48.742;9.128;2023-05-23T02:55:29;69.23;;;43.60;;
2480;SDS011;57396;48.742;9.128;2023-05-23T02:57:56;73.63;;;43.70;;
2480;SDS011;57396;48.742;9.128;2023-05-23T03:00:23;68.27;;;40.30;;
2480;SDS011;57396;48.742;9.128;2023-05-23T03:02:48;72.53;;;42.03;;
2480;SDS011;57396;48.742;9.128;2023-05-23T03:05:14;75.47;;;47.20;;
2480;SDS011;57396;48.742;9.128;2023-05-23T03:07:39;71.93;;;43.20;;
2480;SDS011;57396;48.742;9.128;2023-05-23T03:10:05;64.30;;;42.73;;
2480;SDS011;57396;48.742;9.128;2023-05-23T03:12:31;70.60;;;43.83;;
2480;SDS011;57396;48.742;9.128;2023-05-23T03:14:57;75.33;;;44.27;;
2480;SDS011;57396;48.742;9.128;2023-05-23T03:17:23;76.20;;;43.90;;
2480;SDS011;57396;48.742;9.128;2023-05-23T03:19:49;63.60;;;41.87;;
2480;SDS011;57396;48.742;9.128;2023-05-23T03:22:14;70.33;;;44.40;;
2480;SDS011;57396;48.742;9.128;2023-05-23T03:24:40;71.37;;;46.60;;
2480;SDS011;57396;48.742;9.128;2023-05-23T03:27:05;70.67;;;43.37;;
2480;SDS011;57396;48.742;9.128;2023-05-23T03:29:31;70.67;;;44.87;;
2480;SDS011;57396;48.742;9.128;2023-05-23T03:31:56;70.97;;;44.23;;
2480;SDS011;57396;48.742;9.128;2023-05-23T03:34:22;65.17;;;43.50;;
2480;SDS011;57396;48.742;9.128;2023-05-23T03:36:48;73.50;;;45.07;;
2480;SDS011;57396;48.742;9.128;2023-05-23T03:39:13;70.57;;;44.40;;
2480;SDS011;57396;48.742;9.128;2023-05-23T03:41:39;66.00;;;44.30;;
2480;SDS011;57396;48.742;9.128;2023-05-23T03:44:04;57.60;;;41.63;;
2480;SDS011;57396;48.742;9.128;2023-05-23T03:46:29;58.17;;;41.80;;
2480;SDS011;57396;48.742;9.128;2023-05-23T03:48:55;66.00;;;42.90;;
2480;SDS011;57396;48.742;9.128;2023-05-23T03:51:20;56.37;;;40.40;;
2480;SDS011;57396;48.742;9.128;2023-05-23T03:53:46;57.33;;;39.73;;
2480;SDS011;57396;48.742;9.128;2023-05-23T03:56:11;61.60;;;42.60;;
2480;SDS011;57396;48.742;9.128;2023-05-23T03:58:37;59.07;;;39.50;;
2480;SDS011;57396;48.742;9.128;2023-05-23T04:01:05;59.87;;;42.57;;
2480;SDS011;57396;48.742;9.128;2023-05-23T04:03:30;61.53;;;42.27;;
2480;SDS011;57396;48.742;9.128;2023-05-23T04:05:57;60.17;;;40.77;;
2480;SDS011;57396;48.742;9.128;2023-05-23T04:08:23;54.53;;;40.53;;
2480;SDS011;57396;48.742;9.128;2023-05-23T04:10:49;59.63;;;40.70;;
2480;SDS011;57396;48.742;9.128;2023-05-23T04:13:14;60.80;;;42.10;;
2480;SDS011;57396;48.742;9.128;2023-05-23T04:15:40;55.77;;;40.10;;
2480;SDS011;57396;48.742;9.128;2023-05-23T04:18:06;62.03;;;39.20;;
2480;SDS011;57396;48.742;9.128;2023-05-23T04:20:33;57.23;;;40.40;;
2480;SDS011;57396;48.742;9.128;2023-05-23T04:22:59;55.93;;;37.07;;
2480;SDS011;57396;48.742;9.128;2023-05-23T04:25:24;64.63;;;40.80;;
2480;SDS011;57396;48.742;9.128;2023-05-23T04:27:50;55.00;;;39.80;;
2480;SDS011;57396;48.742;9.128;2023-05-23T04:30:16;52.77;;;38.20;;
2480;SDS011;57396;48.742;9.128;2023-05-23T04:32:42;58.50;;;39.30;;
2480;SDS011;57396;48.742;9.128;2023-05-23T04:35:08;56.73;;;39.80;;
2480;SDS011;57396;48.742;9.128;2023-05-23T04:37:34;49.97;;;37.97;;
2480;SDS011;57396;48.742;9.128;2023-05-23T04:40:02;55.40;;;38.07;;
2480;SDS011;57396;48.742;9.128;2023-05-23T04:42:28;57.17;;;38.57;;
2480;SDS011;57396;48.742;9.128;2023-05-23T04:44:53;51.27;;;39.33;;
2480;SDS011;57396;48.742;9.128;2023-05-23T04:47:21;50.93;;;36.27;;
2480;SDS011;57396;48.742;9.128;2023-05-23T04:49:48;52.37;;;39.07;;
2480;SDS011;57396;48.742;9.128;2023-05-23T04:52:14;46.43;;;37.03;;
2480;SDS011;57396;48.742;9.128;2023-05-23T04:54:43;47.07;;;37.90;;
2480;SDS011;57396;48.742;9.128;2023-05-23T04:57:10;53.27;;;39.57;;
2480;SDS011;57396;48.742;9.128;2023-05-23T04:59:36;55.00;;;39.53;;
2480;SDS011;57396;48.742;9.128;2023-05-23T05:02:02;47.67;;;36.73;;
2480;SDS011;57396;48.742;9.128;2023-05-23T05:04:29;51.83;;;38.83;;
2480;SDS011;57396;48.742;9.128;2023-05-23T05:06:55;50.97;;;38.07;;
2480;SDS011;57396;48.742;9.128;2023-05-23T05:09:21;50.83;;;38.50;;
2480;SDS011;57396;48.742;9.128;2023-05-23T05:11:47;48.47;;;37.70;;
2480;SDS011;57396;48.742;9.128;2023-05-23T05:14:12;47.67;;;39.20;;
2480;SDS011;57396;48.742;9.128;2023-05-23T05:16:38;47.27;;;38.03;;
2480;SDS011;57396;48.742;9.128;2023-05-23T05:19:03;48.77;;;37.17;;
2480;SDS011;57396;48.742;9.128;2023-05-23T05:21:29;48.77;;;38.43;;
2480;SDS011;57396;48.742;9.128;2023-05-23T05:23:55;53.90;;;39.00;;
2480;SDS011;57396;48.742;9.128;2023-05-23T05:26:21;46.17;;;37.90;;
2480;SDS011;57396;48.742;9.128;2023-05-23T05:28:47;48.03;;;38.83;;
2480;SDS011;57396;48.742;9.128;2023-05-23T05:31:13;49.50;;;39.03;;
2480;SDS011;57396;48.742;9.128;2023-05-23T05:33:39;48.77;;;38.30;;
2480;SDS011;57396;48.742;9.128;2023-05-23T05:36:06;55.13;;;39.53;;
2480;SDS011;57396;48.742;9.128;2023-05-23T05:38:31;53.37;;;40.83;;
2480;SDS011;57396;48.742;9.128;2023-05-23T05:40:57;49.60;;;40.53;;
2480;SDS011;57396;48.742;9.128;2023-05-23T05:43:22;48.93;;;39.43;;
2480;SDS011;57396;48.742;9.128;2023-05-23T05:45:49;48.37;;;36.33;;
2480;SDS011;57396;48.742;9.128;2023-05-23T05:48:15;46.87;;;35.73;;
2480;SDS011;57396;48.742;9.128;2023-05-23T05:50:40;53.70;;;38.57;;
2480;SDS011;57396;48.742;9.128;2023-05-23T05:53:09;49.30;;;40.30;;
2480;SDS011;57396;48.742;9.128;2023-05-23T05:55:35;55.33;;;39.47;;
2480;SDS011;57396;48.742;9.128;2023-05-23T05:58:00;48.70;;;37.40;;
2480;SDS011;57396;48.742;9.128;2023-05-23T06:00:25;49.60;;;38.57;;
2480;SDS011;57396;48.742;9.128;2023-05-23T06:02:51;40.23;;;32.60;;
2480;SDS011;57396;48.742;9.128;2023-05-23T06:05:18;50.03;;;35.03;;
2480;SDS011;57396;48.742;9.128;2023-05-23T06:07:46;44.93;;;34.67;;
2480;SDS011;57396;48.742;9.128;2023-05-23T06:10:12;45.00;;;35.00;;
2480;SDS011;57396;48.742;9.128;2023-05-23T06:12:38;40.00;;;29.63;;
2480;SDS011;57396;48.742;9.128;2023-05-23T06:15:04;42.20;;;31.60;;
2480;SDS011;57396;48.742;9.128;2023-05-23T06:17:30;42.33;;;36.13;;
2480;SDS011;57396;48.742;9.128;2023-05-23T06:19:55;44.40;;;34.57;;
2480;SDS011;57396;48.742;9.128;2023-05-23T06:22:21;46.07;;;36.97;;
2480;SDS011;57396;48.742;9.128;2023-05-23T06:24:46;48.67;;;38.20;;
2480;SDS011;57396;48.742;9.128;2023-05-23T06:27:12;49.00;;;37.70;;
2480;SDS011;57396;48.742;9.128;2023-05-23T06:29:37;47.30;;;37.57;;
2480;SDS011;57396;48.742;9.128;2023-05-23T06:32:03;43.80;;;37.47;;
2480;SDS011;57396;48.742;9.128;2023-05-23T06:34:29;43.40;;;36.77;;
2480;SDS011;57396;48.742;9.128;2023-05-23T06:36:55;46.23;;;39.17;;
2480;SDS011;57396;48.742;9.128;2023-05-23T06:39:20;41.10;;;35.90;;
2480;SDS011;57396;48.742;9.128;2023-05-23T06:41:46;45.00;;;36.40;;
2480;SDS011;57396;48.742;9.128;2023-05-23T06:44:12;43.47;;;35.93;;
2480;SDS011;57396;48.742;9.128;2023-05-23T06:46:37;45.07;;;32.57;;
2480;SDS011;57396;48.742;9.128;2023-05-23T06:49:03;40.67;;;34.03;;
2480;SDS011;57396;48.742;9.128;2023-05-23T06:51:28;40.67;;;33.63;;
2480;SDS011;57396;48.742;9.128;2023-05-23T06:53:54;37.10;;;31.70;;
2480;SDS011;57396;48.742;9.128;2023-05-23T06:56:21;40.83;;;32.90;;
2480;SDS011;57396;48.742;9.128;2023-05-23T06:58:47;40.37;;;33.80;;
2480;SDS011;57396;48.742;9.128;2023-05-23T07:01:12;41.40;;;33.40;;
2480;SDS011;57396;48.742;9.128;2023-05-23T07:03:38;40.90;;;34.27;;
2480;SDS011;57396;48.742;9.128;2023-05-23T07:06:07;41.43;;;33.43;;
2480;SDS011;57396;48.742;9.128;2023-05-23T07:08:32;42.63;;;34.77;;
2480;SDS011;57396;48.742;9.128;2023-05-23T07:10:58;37.70;;;31.57;;
2480;SDS011;57396;48.742;9.128;2023-05-23T07:13:23;40.13;;;32.90;;
2480;SDS011;57396;48.742;9.128;2023-05-23T07:15:49;47.70;;;32.90;;
2480;SDS011;57396;48.742;9.128;2023-05-23T07:18:14;42.07;;;33.57;;
2480;SDS011;57396;48.742;9.128;2023-05-23T07:20:40;42.77;;;33.67;;
2480;SDS011;57396;48.742;9.128;2023-05-23T07:23:05;39.87;;;33.77;;
2480;SDS011;57396;48.742;9.128;2023-05-23T07:25:30;42.33;;;31.47;;
2480;SDS011;57396;48.742;9.128;2023-05-23T07:27:56;35.80;;;31.47;;
2480;SDS011;57396;48.742;9.128;2023-05-23T07:30:21;36.77;;;31.47;;
2480;SDS011;57396;48.742;9.128;2023-05-23T07:32:47;35.93;;;30.97;;
2480;SDS011;57396;48.742;9.128;2023-05-23T07:35:13;37.60;;;30.67;;
2480;SDS011;57396;48.742;9.128;2023-05-23T07:37:39;39.67;;;31.67;;
2480;SDS011;57396;48.742;9.128;2023-05-23T07:40:05;48.77;;;32.70;;
2480;SDS011;57396;48.742;9.128;2023-05-23T07:42:34;41.80;;;34.63;;
2480;SDS011;57396;48.742;9.128;2023-05-23T07:45:00;39.60;;;33.80;;
2480;SDS011;57396;48.742;9.128;2023-05-23T07:47:25;39.40;;;34.47;;
2480;SDS011;57396;48.742;9.128;2023-05-23T07:49:51;44.00;;;34.00;;
2480;SDS011;57396;48.742;9.128;2023-05-23T07:52:17;42.13;;;36.13;;
2480;SDS011;57396;48.742;9.128;2023-05-23T07:54:43;40.47;;;34.07;;
2480;SDS011;57396;48.742;9.128;2023-05-23T07:57:09;45.93;;;34.77;;
2480;SDS011;57396;48.742;9.128;2023-05-23T07:59:34;43.43;;;32.93;;
2480;SDS011;57396;48.742;9.128;2023-05-23T08:02:00;44.80;;;35.43;;
2480;SDS011;57396;48.742;9.128;2023-05-23T08:04:27;42.30;;;34.20;;
2480;SDS011;57396;48.742;9.128;2023-05-23T08:06:52;41.17;;;33.13;;
2480;SDS011;57396;48.742;9.128;2023-05-23T08:09:19;38.40;;;32.60;;
2480;SDS011;57396;48.742;9.128;2023-05-23T08:11:45;37.73;;;32.57;;
2480;SDS011;57396;48.742;9.128;2023-05-23T08:14:10;36.77;;;31.43;;
2480;SDS011;57396;48.742;9.128;2023-05-23T08:16:36;39.97;;;32.77;;
2480;SDS011;57396;48.742;9.128;2023-05-23T08:19:01;35.80;;;29.60;;
2480;SDS011;57396;48.742;9.128;2023-05-23T08:21:27;33.30;;;28.97;;
2480;SDS011;57396;48.742;9.128;2023-05-23T08:23:52;35.93;;;27.17;;
2480;SDS011;57396;48.742;9.128;2023-05-23T08:26:18;31.73;;;28.33;;
2480;SDS011;57396;48.742;9.128;2023-05-23T08:28:43;35.20;;;27.40;;
2480;SDS011;57396;48.742;9.128;2023-05-23T08:31:09;32.90;;;27.83;;
2480;SDS011;57396;48.742;9.128;2023-05-23T08:33:35;32.50;;;27.53;;
2480;SDS011;57396;48.742;9.128;2023-05-23T08:36:01;33.63;;;27.13;;
2480;SDS011;57396;48.742;9.128;2023-05-23T08:38:26;32.93;;;26.40;;
2480;SDS011;57396;48.742;9.128;2023-05-23T08:40:51;29.60;;;26.40;;
2480;SDS011;57396;48.742;9.128;2023-05-23T08:43:18;31.77;;;25.00;;
2480;SDS011;57396;48.742;9.128;2023-05-23T08:45:44;28.40;;;25.30;;
2480;SDS011;57396;48.742;9.128;2023-05-23T08:48:10;29.97;;;25.07;;
2480;SDS011;57396;48.742;9.128;2023-05-23T08:50:41;25.80;;;22.70;;
2480;SDS011;57396;48.742;9.128;2023-05-23T08:53:07;29.73;;;24.03;;
2480;SDS011;57396;48.742;9.128;2023-05-23T08:55:34;26.60;;;21.90;;
2480;SDS011;57396;48.742;9.128;2023-05-23T08:58:01;27.40;;;22.00;;
2480;SDS011;57396;48.742;9.128;2023-05-23T09:00:27;26.90;;;20.80;;
2480;SDS011;57396;48.742;9.128;2023-05-23T09:02:53;26.50;;;22.20;;
2480;SDS011;57396;48.742;9.128;2023-05-23T09:05:19;24.37;;;21.87;;
2480;SDS011;57396;48.742;9.128;2023-05-23T09:07:45;31.20;;;22.83;;
2480;SDS011;57396;48.742;9.128;2023-05-23T09:10:13;31.80;;;22.30;;
2480;SDS011;57396;48.742;9.128;2023-05-23T09:12:41;23.20;;;20.40;;
2480;SDS011;57396;48.742;9.128;2023-05-23T09:15:07;27.80;;;22.33;;
2480;SDS011;57396;48.742;9.128;2023-05-23T09:17:33;23.53;;;20.93;;
2480;SDS011;57396;48.742;9.128;2023-05-23T09:20:00;25.53;;;21.47;;
2480;SDS011;57396;48.742;9.128;2023-05-23T09:22:26;24.03;;;20.40;;
2480;SDS011;57396;48.742;9.128;2023-05-23T09:24:53;24.73;;;21.83;;
2480;SDS011;57396;48.742;9.128;2023-05-23T09:27:19;25.23;;;20.53;;
2480;SDS011;57396;48.742;9.128;2023-05-23T09:29:45;26.37;;;19.67;;
2480;SDS011;57396;48.742;9.128;2023-05-23T09:32:18;21.40;;;18.83;;
2480;SDS011;57396;48.742;9.128;2023-05-23T09:37:33;19.10;;;17.07;;
2480;SDS011;57396;48.742;9.128;2023-05-23T09:40:00;20.23;;;17.60;;
2480;SDS011;57396;48.742;9.128;2023-05-23T09:42:31;18.60;;;16.20;;
2480;SDS011;57396;48.742;9.128;2023-05-23T09:44:58;18.30;;;16.50;;
2480;SDS011;57396;48.742;9.128;2023-05-23T09:47:23;15.77;;;13.87;;
2480;SDS011;57396;48.742;9.128;2023-05-23T09:49:49;19.20;;;14.03;;
2480;SDS011;57396;48.742;9.128;2023-05-23T09:52:15;14.80;;;13.20;;
2480;SDS011;57396;48.742;9.128;2023-05-23T09:54:41;14.90;;;13.40;;
2480;SDS011;57396;48.742;9.128;2023-05-23T09:57:10;16.37;;;14.63;;
2480;SDS011;57396;48.742;9.128;2023-05-23T09:59:40;16.50;;;14.27;;
2480;SDS011;57396;48.742;9.128;2023-05-23T10:02:07;14.20;;;12.70;;
2480;SDS011;57396;48.742;9.128;2023-05-23T10:04:35;17.10;;;13.67;;
2480;SDS011;57396;48.742;9.128;2023-05-23T10:07:04;14.67;;;13.00;;
2480;SDS011;57396;48.742;9.128;2023-05-23T10:09:35;15.30;;;13.20;;
2480;SDS011;57396;48.742;9.128;2023-05-23T10:12:33;20.53;;;12.27;;
2480;SDS011;57396;48.742;9.128;2023-05-23T10:15:03;13.93;;;12.53;;
2480;SDS011;57396;48.742;9.128;2023-05-23T10:20:18;14.60;;;10.70;;
2480;SDS011;57396;48.742;9.128;2023-05-23T10:22:46;12.17;;;10.97;;
2480;SDS011;57396;48.742;9.128;2023-05-23T10:25:12;26.30;;;12.37;;
2480;SDS011;57396;48.742;9.128;2023-05-23T10:27:39;12.43;;;10.40;;
2480;SDS011;57396;48.742;9.128;2023-05-23T10:30:06;11.37;;;10.27;;
2480;SDS011;57396;48.742;9.128;2023-05-23T10:32:32;11.10;;;9.90;;
2480;SDS011;57396;48.742;9.128;2023-05-23T10:35:16;11.90;;;10.70;;
2480;SDS011;57396;48.742;9.128;2023-05-23T10:46:06;13.20;;;11.50;;
2480;SDS011;57396;48.742;9.128;2023-05-23T10:48:33;12.63;;;10.20;;
2480;SDS011;57396;48.742;9.128;2023-05-23T10:51:09;11.80;;;9.50;;
2480;SDS011;57396;48.742;9.128;2023-05-23T10:53:40;12.03;;;10.57;;
2480;SDS011;57396;48.742;9.128;2023-05-23T10:56:06;16.50;;;9.87;;
2480;SDS011;57396;48.742;9.128;2023-05-23T10:58:33;10.60;;;9.60;;
2480;SDS011;57396;48.742;9.128;2023-05-23T11:01:06;10.40;;;9.43;;
2480;SDS011;57396;48.742;9.128;2023-05-23T11:03:37;13.60;;;10.47;;
2480;SDS011;57396;48.742;9.128;2023-05-23T11:06:37;12.10;;;10.40;;
2480;SDS011;57396;48.742;9.128;2023-05-23T11:09:13;11.50;;;10.40;;
2480;SDS011;57396;48.742;9.128;2023-05-23T11:14:18;12.13;;;10.03;;
2480;SDS011;57396;48.742;9.128;2023-05-23T11:16:44;11.63;;;10.43;;
2480;SDS011;57396;48.742;9.128;2023-05-23T11:22:02;11.50;;;10.40;;
2480;SDS011;57396;48.742;9.128;2023-05-23T11:27:17;11.43;;;9.87;;
2480;SDS011;57396;48.742;9.128;2023-05-23T11:32:26;9.93;;;8.93;;
2480;SDS011;57396;48.742;9.128;2023-05-23T11:34:53;10.43;;;9.30;;
2480;SDS011;57396;48.742;9.128;2023-05-23T11:37:19;12.30;;;8.93;;
2480;SDS011;57396;48.742;9.128;2023-05-23T11:39:44;10.50;;;9.50;;
2480;SDS011;57396;48.742;9.128;2023-05-23T11:42:10;11.53;;;10.33;;
2480;SDS011;57396;48.742;9.128;2023-05-23T11:44:35;10.33;;;9.10;;
2480;SDS011;57396;48.742;9.128;2023-05-23T11:47:01;16.00;;;9.83;;
2480;SDS011;57396;48.742;9.128;2023-05-23T11:49:28;14.83;;;10.97;;
2480;SDS011;57396;48.742;9.128;2023-05-23T11:51:54;10.63;;;9.60;;
2480;SDS011;57396;48.742;9.128;2023-05-23T11:54:26;12.00;;;10.00;;
2480;SDS011;57396;48.742;9.128;2023-05-23T11:56:52;11.43;;;10.20;;
2480;SDS011;57396;48.742;9.128;2023-05-23T11:59:17;14.93;;;11.07;;
2480;SDS011;57396;48.742;9.128;2023-05-23T12:01:43;15.30;;;11.93;;
2480;SDS011;57396;48.742;9.128;2023-05-23T12:04:09;13.70;;;11.60;;
2480;SDS011;57396;48.742;9.128;2023-05-23T12:06:40;11.23;;;10.10;;
2480;SDS011;57396;48.742;9.128;2023-05-23T12:09:09;11.50;;;10.40;;
2480;SDS011;57396;48.742;9.128;2023-05-23T12:11:37;11.03;;;9.93;;
2480;SDS011;57396;48.742;9.128;2023-05-23T12:14:03;10.77;;;9.67;;
2480;SDS011;57396;48.742;9.128;2023-05-23T12:16:30;13.17;;;9.77;;
2480;SDS011;57396;48.742;9.128;2023-05-23T12:19:00;10.80;;;9.83;;
2480;SDS011;57396;48.742;9.128;2023-05-23T12:21:26;14.07;;;9.63;;
2480;SDS011;57396;48.742;9.128;2023-05-23T12:24:14;10.37;;;9.00;;
2480;SDS011;57396;48.742;9.128;2023-05-23T12:26:45;9.40;;;8.57;;
2480;SDS011;57396;48.742;9.128;2023-05-23T12:29:20;8.73;;;7.90;;
2480;SDS011;57396;48.742;9.128;2023-05-23T12:31:49;9.07;;;8.27;;
2480;SDS011;57396;48.742;9.128;2023-05-23T12:34:15;8.03;;;7.30;;
2480;SDS011;57396;48.742;9.128;2023-05-23T12:36:41;7.47;;;6.53;;
2480;SDS011;57396;48.742;9.128;2023-05-23T12:39:07;8.23;;;7.10;;
2480;SDS011;57396;48.742;9.128;2023-05-23T12:41:33;7.50;;;6.80;;
2480;SDS011;57396;48.742;9.128;2023-05-23T12:43:58;7.57;;;6.97;;
2480;SDS011;57396;48.742;9.128;2023-05-23T12:46:24;9.87;;;6.90;;
2480;SDS011;57396;48.742;9.128;2023-05-23T12:48:51;7.63;;;6.93;;
2480;SDS011;57396;48.742;9.128;2023-05-23T12:51:17;7.17;;;5.90;;
2480;SDS011;57396;48.742;9.128;2023-05-23T12:53:42;6.63;;;6.10;;
2480;SDS011;57396;48.742;9.128;2023-05-23T12:56:08;7.53;;;6.80;;
2480;SDS011;57396;48.742;9.128;2023-05-23T12:58:34;6.83;;;5.97;;
2480;SDS011;57396;48.742;9.128;2023-05-23T13:00:59;6.20;;;5.60;;
2480;SDS011;57396;48.742;9.128;2023-05-23T13:03:25;6.60;;;6.03;;
2480;SDS011;57396;48.742;9.128;2023-05-23T13:05:51;7.40;;;6.03;;
2480;SDS011;57396;48.742;9.128;2023-05-23T13:08:17;8.43;;;5.70;;
2480;SDS011;57396;48.742;9.128;2023-05-23T13:10:44;5.27;;;4.83;;
2480;SDS011;57396;48.742;9.128;2023-05-23T13:13:09;5.70;;;5.20;;
2480;SDS011;57396;48.742;9.128;2023-05-23T13:15:35;6.80;;;4.73;;
2480;SDS011;57396;48.742;9.128;2023-05-23T13:18:01;5.70;;;5.20;;
2480;SDS011;57396;48.742;9.128;2023-05-23T13:20:27;6.33;;;4.70;;
2480;SDS011;57396;48.742;9.128;2023-05-23T13:22:55;5.80;;;5.30;;
2480;SDS011;57396;48.742;9.128;2023-05-23T13:25:21;5.47;;;4.97;;
2480;SDS011;57396;48.742;9.128;2023-05-23T13:27:46;6.03;;;5.43;;
2480;SDS011;57396;48.742;9.128;2023-05-23T13:30:12;5.80;;;5.30;;
2480;SDS011;57396;48.742;9.128;2023-05-23T13:32:37;5.40;;;4.90;;
2480;SDS011;57396;48.742;9.128;2023-05-23T13:35:03;4.60;;;4.30;;
2480;SDS011;57396;48.742;9.128;2023-05-23T13:37:28;4.90;;;4.50;;
2480;SDS011;57396;48.742;9.128;2023-05-23T13:39:54;6.67;;;5.27;;
2480;SDS011;57396;48.742;9.128;2023-05-23T13:42:19;5.73;;;4.90;;
2480;SDS011;57396;48.742;9.128;2023-05-23T13:44:45;5.70;;;5.20;;
2480;SDS011;57396;48.742;9.128;2023-05-23T13:47:13;5.70;;;5.20;;
2480;SDS011;57396;48.742;9.128;2023-05-23T13:49:39;6.00;;;5.07;;
2480;SDS011;57396;48.742;9.128;2023-05-23T13:52:08;4.80;;;4.40;;
2480;SDS011;57396;48.742;9.128;2023-05-23T13:54:55;4.77;;;4.40;;
2480;SDS011;57396;48.742;9.128;2023-05-23T13:57:20;4.60;;;4.20;;
2480;SDS011;57396;48.742;9.128;2023-05-23T13:59:46;4.53;;;4.13;;
2480;SDS011;57396;48.742;9.128;2023-05-23T14:02:11;5.90;;;4.07;;
2480;SDS011;57396;48.742;9.128;2023-05-23T14:04:37;5.10;;;4.20;;
2480;SDS011;57396;48.742;9.128;2023-05-23T14:07:02;4.60;;;4.20;;
2480;SDS011;57396;48.742;9.128;2023-05-23T14:09:28;4.33;;;4.03;;
2480;SDS011;57396;48.742;9.128;2023-05-23T14:11:53;4.43;;;3.93;;
2480;SDS011;57396;48.742;9.128;2023-05-23T14:14:19;7.43;;;4.13;;
2480;SDS011;57396;48.742;9.128;2023-05-23T14:16:44;3.83;;;3.53;;
2480;SDS011;57396;48.742;9.128;2023-05-23T14:19:10;4.57;;;4.27;;
2480;SDS011;57396;48.742;9.128;2023-05-23T14:21:35;4.53;;;4.13;;
2480;SDS011;57396;48.742;9.128;2023-05-23T14:24:01;4.67;;;4.27;;
2480;SDS011;57396;48.742;9.128;2023-05-23T14:26:27;7.53;;;4.90;;
2480;SDS011;57396;48.742;9.128;2023-05-23T14:28:52;5.00;;;4.47;;
2480;SDS011;57396;48.742;9.128;2023-05-23T14:31:18;6.20;;;3.80;;
2480;SDS011;57396;48.742;9.128;2023-05-23T14:33:45;5.90;;;3.83;;
2480;SDS011;57396;48.742;9.128;2023-05-23T14:36:11;3.90;;;3.60;;
2480;SDS011;57396;48.742;9.128;2023-05-23T14:38:36;5.90;;;4.10;;
2480;SDS011;57396;48.742;9.128;2023-05-23T14:41:03;4.20;;;3.90;;
2480;SDS011;57396;48.742;9.128;2023-05-23T14:43:29;4.47;;;4.17;;
2480;SDS011;57396;48.742;9.128;2023-05-23T14:45:54;4.77;;;4.37;;
2480;SDS011;57396;48.742;9.128;2023-05-23T14:48:20;4.77;;;4.33;;
2480;SDS011;57396;48.742;9.128;2023-05-23T14:50:45;5.27;;;4.77;;
2480;SDS011;57396;48.742;9.128;2023-05-23T14:53:11;5.30;;;4.80;;
2480;SDS011;57396;48.742;9.128;2023-05-23T14:55:36;5.30;;;4.80;;
2480;SDS011;57396;48.742;9.128;2023-05-23T14:58:02;5.53;;;5.00;;
2480;SDS011;57396;48.742;9.128;2023-05-23T15:00:28;5.93;;;4.60;;
2480;SDS011;57396;48.742;9.128;2023-05-23T15:02:53;4.93;;;4.43;;
2480;SDS011;57396;48.742;9.128;2023-05-23T15:05:19;5.40;;;4.90;;